Time;durP1;ratioP1;P1;durP2;ratioP2;P2;SDS_P1;SDS_P2;PMS_P1;PMS_P2;Temp;Humidity;BMP_temperature;BMP_pressure;BME280_temperature;BME280_humidity;BME280_pressure;Samples;Min_cycle;Max_cycle;Signal;HPM_P1;HPM_P2
2023/05/15 00:01:03;;;;;;;0.33;0.33;;;;;;;15.11;100.00;99661.50;5051154;28;20255;-66
2023/05/15 00:03:29;;;;;;;0.40;0.40;;;;;;;15.10;100.00;99649.50;5050949;28;20245;-66
2023/05/15 00:05:59;;;;;;;0.70;0.70;;;;;;;15.07;100.00;99644.47;5051324;28;20204;-66
2023/05/15 00:08:26;;;;;;;0.60;0.60;;;;;;;15.05;100.00;99647.13;5050997;28;20273;-66
2023/05/15 00:10:53;;;;;;;0.50;0.50;;;;;;;15.00;100.00;99646.47;5050535;28;20193;-66
2023/05/15 00:13:19;;;;;;;0.40;0.40;;;;;;;14.99;100.00;99642.22;5050588;28;20197;-66
2023/05/15 00:15:48;;;;;;;0.67;0.67;;;;;;;14.99;100.00;99641.41;5050621;28;20566;-66
2023/05/15 00:18:14;;;;;;;0.50;0.50;;;;;;;14.97;100.00;99638.88;5050453;28;20255;-66
2023/05/15 00:20:41;;;;;;;0.50;0.50;;;;;;;14.99;100.00;99636.25;5051082;28;20638;-66
2023/05/15 00:23:08;;;;;;;0.60;0.60;;;;;;;14.99;100.00;99638.81;5050366;28;20216;-66
2023/05/15 00:25:34;;;;;;;0.50;0.50;;;;;;;14.97;100.00;99632.88;5050434;28;20204;-66
2023/05/15 00:28:01;;;;;;;0.60;0.60;;;;;;;14.96;100.00;99633.78;5050562;28;20220;-66
2023/05/15 00:30:28;;;;;;;0.50;0.50;;;;;;;14.96;100.00;99641.53;5050516;28;20668;-66
2023/05/15 00:32:56;;;;;;;0.50;0.50;;;;;;;14.76;100.00;99618.34;5050905;28;20250;-66
2023/05/15 00:35:23;;;;;;;0.40;0.40;;;;;;;14.92;100.00;99645.16;5050117;28;20291;-66
2023/05/15 00:37:50;;;;;;;0.60;0.60;;;;;;;14.89;100.00;99642.72;5050793;28;20211;-66
2023/05/15 00:40:21;;;;;;;0.83;0.83;;;;;;;14.86;100.00;99635.94;5050252;28;20702;-66
2023/05/15 00:42:49;;;;;;;0.50;0.50;;;;;;;14.85;100.00;99628.25;5050710;28;20291;-66
2023/05/15 00:45:16;;;;;;;0.50;0.50;;;;;;;14.81;100.00;99624.13;5049906;28;20254;-65
2023/05/15 00:47:43;;;;;;;0.47;0.47;;;;;;;14.83;100.00;99619.75;5050775;28;20201;-66
2023/05/15 00:50:12;;;;;;;0.40;0.40;;;;;;;14.81;100.00;99609.47;5050188;28;20237;-66
2023/05/15 00:52:38;;;;;;;0.40;0.40;;;;;;;14.79;100.00;99602.72;5050282;28;20201;-67
2023/05/15 00:55:06;;;;;;;0.70;0.70;;;;;;;14.73;100.00;99599.47;5049738;28;20664;-67
2023/05/15 00:57:33;;;;;;;0.60;0.60;;;;;;;14.68;100.00;99598.84;5050424;28;20576;-67
2023/05/15 01:00:03;;;;;;;0.50;0.50;;;;;;;14.66;100.00;99592.09;5050500;28;20201;-67
2023/05/15 01:02:30;;;;;;;0.60;0.60;;;;;;;14.64;100.00;99584.41;5049339;28;20207;-67
2023/05/15 01:04:57;;;;;;;0.70;0.70;;;;;;;14.64;100.00;99576.66;5050237;28;20205;-67
2023/05/15 01:07:25;;;;;;;0.87;0.87;;;;;;;14.63;100.00;99571.59;5049845;28;20659;-66
2023/05/15 01:09:53;;;;;;;0.50;0.50;;;;;;;14.62;100.00;99560.41;5050281;28;20248;-67
2023/05/15 01:12:23;;;;;;;0.50;0.50;;;;;;;14.61;100.00;99566.47;5049591;28;20196;-67
2023/05/15 01:14:50;;;;;;;0.40;0.40;;;;;;;14.60;100.00;99561.41;5050087;28;20200;-67
2023/05/15 01:17:17;;;;;;;0.50;0.50;;;;;;;14.60;100.00;99548.50;5049671;28;20751;-67
2023/05/15 01:19:46;;;;;;;1.00;1.00;;;;;;;14.56;100.00;99550.38;5049575;28;20250;-67
2023/05/15 01:22:33;;;;;;;0.50;0.50;;;;;;;14.52;100.00;99551.41;5049484;28;20283;-67
2023/05/15 01:25:46;;;;;;;1.07;1.07;;;;;;;14.54;100.00;99539.28;5050158;28;20201;-67
2023/05/15 01:28:17;;;;;;;0.57;0.57;;;;;;;14.51;100.00;99541.97;5002550;28;20312;-67
2023/05/15 01:30:47;;;;;;;0.60;0.60;;;;;;;14.44;100.00;99548.31;5049866;28;20289;-67
2023/05/15 01:33:18;;;;;;;0.40;0.40;;;;;;;14.39;100.00;99542.53;5049731;28;20634;-67
2023/05/15 01:35:50;;;;;;;0.40;0.40;;;;;;;14.36;100.00;99547.81;5049715;28;20197;-67
2023/05/15 01:38:24;;;;;;;0.53;0.53;;;;;;;14.35;100.00;99559.03;5049610;28;20258;-67
2023/05/15 01:40:57;;;;;;;0.60;0.60;;;;;;;14.36;100.00;99565.88;5048368;28;20240;-66
2023/05/15 01:43:28;;;;;;;0.77;0.77;;;;;;;14.38;100.00;99569.22;5049560;28;20199;-67
2023/05/15 01:45:56;;;;;;;0.40;0.40;;;;;;;14.38;100.00;99555.50;5049839;28;20735;-67
2023/05/15 01:48:26;;;;;;;0.40;0.40;;;;;;;14.35;100.00;99551.28;5049641;28;20691;-67
2023/05/15 01:50:55;;;;;;;0.87;0.87;;;;;;;14.21;100.00;99525.25;5048863;28;20322;-67
2023/05/15 01:53:22;;;;;;;0.60;0.60;;;;;;;13.98;100.00;99499.59;5049054;28;20228;-67
2023/05/15 01:55:50;;;;;;;0.50;0.50;;;;;;;14.04;100.00;99505.34;5049478;28;20231;-67
2023/05/15 01:58:18;;;;;;;0.60;0.60;;;;;;;13.93;100.00;99491.22;5049996;28;20611;-67
2023/05/15 02:00:48;;;;;;;0.60;0.60;;;;;;;13.91;100.00;99477.56;5049563;28;20200;-67
2023/05/15 02:03:15;;;;;;;0.70;0.70;;;;;;;13.92;100.00;99487.81;5049541;28;20265;-67
2023/05/15 02:05:43;;;;;;;0.50;0.50;;;;;;;13.85;100.00;99498.44;5049532;28;20204;-67
2023/05/15 02:08:12;;;;;;;0.70;0.70;;;;;;;13.86;100.00;99525.91;5049274;28;20207;-67
2023/05/15 02:10:40;;;;;;;0.57;0.57;;;;;;;13.85;100.00;99540.50;5049463;28;20216;-68
2023/05/15 02:13:09;;;;;;;0.60;0.60;;;;;;;13.89;100.00;99542.06;5049177;28;20194;-67
2023/05/15 02:15:36;;;;;;;0.70;0.70;;;;;;;13.94;100.00;99526.41;5049627;28;20743;-67
2023/05/15 02:18:05;;;;;;;0.40;0.40;;;;;;;13.95;100.00;99520.34;5049029;28;20209;-68
2023/05/15 02:20:31;;;;;;;0.73;0.73;;;;;;;13.97;100.00;99544.31;5048492;28;20753;-67
2023/05/15 02:22:58;;;;;;;0.50;0.50;;;;;;;14.02;100.00;99538.06;5048924;28;20196;-67
2023/05/15 02:25:34;;;;;;;0.50;0.50;;;;;;;14.09;100.00;99508.53;5048816;28;20267;-67
2023/05/15 02:28:05;;;;;;;0.63;0.63;;;;;;;14.10;100.00;99506.81;5048973;28;20224;-67
2023/05/15 02:30:38;;;;;;;0.50;0.50;;;;;;;14.11;100.00;99500.75;5046614;28;20212;-67
2023/05/15 02:33:14;;;;;;;0.40;0.40;;;;;;;14.06;100.00;99513.00;5049618;28;20203;-67
2023/05/15 02:35:48;;;;;;;0.50;0.50;;;;;;;14.16;100.00;99537.47;5052662;28;20216;-67
2023/05/15 02:38:18;;;;;;;0.50;0.50;;;;;;;14.16;100.00;99524.59;5052489;28;20199;-67
2023/05/15 02:40:47;;;;;;;0.50;0.50;;;;;;;14.19;100.00;99509.81;5052491;28;20193;-67
2023/05/15 02:43:17;;;;;;;0.47;0.47;;;;;;;14.20;100.00;99515.81;5052377;28;20240;-67
2023/05/15 02:45:46;;;;;;;0.40;0.40;;;;;;;14.19;100.00;99509.81;5053300;28;20195;-67
2023/05/15 02:48:15;;;;;;;0.50;0.50;;;;;;;14.20;100.00;99493.47;5052425;28;20202;-67
2023/05/15 02:50:43;;;;;;;0.73;0.73;;;;;;;14.24;100.00;99496.75;5052835;28;20215;-67
2023/05/15 02:53:13;;;;;;;0.70;0.70;;;;;;;14.23;100.00;99510.53;5051425;28;20215;-66
2023/05/15 02:55:39;;;;;;;0.50;0.50;;;;;;;14.23;100.00;99510.53;5052536;28;20202;-67
2023/05/15 02:58:06;;;;;;;0.50;0.50;;;;;;;14.25;100.00;99497.59;5052545;28;20205;-67
2023/05/15 03:00:33;;;;;;;0.77;0.77;;;;;;;14.25;100.00;99493.25;5052475;28;20197;-67
2023/05/15 03:03:00;;;;;;;0.60;0.60;;;;;;;14.21;100.00;99496.88;5052405;28;20575;-67
2023/05/15 03:05:28;;;;;;;0.50;0.50;;;;;;;14.19;100.00;99514.97;5051963;28;20630;-67
2023/05/15 03:07:54;;;;;;;0.80;0.80;;;;;;;14.20;100.00;99513.25;5052426;28;20588;-67
2023/05/15 03:10:22;;;;;;;0.50;0.50;;;;;;;14.20;100.00;99519.25;5052149;28;20585;-67
2023/05/15 03:12:49;;;;;;;0.70;0.70;;;;;;;14.22;100.00;99526.91;5052334;28;20627;-67
2023/05/15 03:15:16;;;;;;;0.70;0.70;;;;;;;14.19;100.00;99529.59;5052034;28;20200;-67
2023/05/15 03:17:43;;;;;;;0.43;0.43;;;;;;;14.19;100.00;99504.66;5052169;28;20245;-67
2023/05/15 03:20:10;;;;;;;0.40;0.40;;;;;;;14.18;100.00;99507.34;5051875;28;20287;-67
2023/05/15 03:22:38;;;;;;;0.50;0.50;;;;;;;14.16;100.00;99516.84;5050334;28;20281;-67
2023/05/15 03:25:06;;;;;;;0.50;0.50;;;;;;;14.15;100.00;99513.44;5051995;28;20256;-67
2023/05/15 03:27:32;;;;;;;0.60;0.60;;;;;;;14.17;100.00;99500.50;5051941;28;20224;-67
2023/05/15 03:29:59;;;;;;;0.43;0.43;;;;;;;14.14;100.00;99500.63;5052049;28;20260;-67
2023/05/15 03:32:26;;;;;;;0.53;0.53;;;;;;;14.15;100.00;99510.84;5051592;28;20264;-67
2023/05/15 03:34:52;;;;;;;0.40;0.40;;;;;;;14.16;100.00;99507.38;5050160;28;20263;-67
2023/05/15 03:37:19;;;;;;;0.50;0.50;;;;;;;14.21;100.00;99499.47;5051747;28;20630;-67
2023/05/15 03:39:47;;;;;;;0.40;0.40;;;;;;;14.20;100.00;99508.94;5048295;28;20201;-67
2023/05/15 03:42:14;;;;;;;0.60;0.60;;;;;;;14.13;100.00;99483.47;5051109;28;20750;-67
2023/05/15 03:44:41;;;;;;;0.50;0.50;;;;;;;14.23;100.00;99500.22;5051630;28;20262;-67
2023/05/15 03:47:07;;;;;;;0.67;0.67;;;;;;;14.12;100.00;99492.09;5051247;28;20199;-67
2023/05/15 03:49:34;;;;;;;0.63;0.63;;;;;;;14.22;100.00;99498.53;5051603;28;20254;-67
2023/05/15 03:52:01;;;;;;;0.53;0.53;;;;;;;14.29;100.00;99489.63;5051727;28;20553;-67
2023/05/15 03:54:27;;;;;;;0.80;0.80;;;;;;;14.27;100.00;99501.78;5048686;28;20252;-67
2023/05/15 03:56:56;;;;;;;0.77;0.77;;;;;;;14.29;100.00;99510.28;5050394;28;20245;-67
2023/05/15 03:59:23;;;;;;;1.10;1.10;;;;;;;14.31;100.00;99499.91;5048086;28;20205;-68
2023/05/15 04:01:50;;;;;;;1.13;1.13;;;;;;;14.33;100.00;99511.84;5050818;28;20219;-67
2023/05/15 04:04:16;;;;;;;0.60;0.60;;;;;;;14.38;100.00;99516.81;5050594;28;20203;-67
2023/05/15 04:06:43;;;;;;;0.80;0.80;;;;;;;14.35;100.00;99520.34;5050648;28;20203;-67
2023/05/15 04:09:10;;;;;;;0.57;0.57;;;;;;;14.34;100.00;99513.53;5051554;28;20200;-67
2023/05/15 04:11:37;;;;;;;0.70;0.70;;;;;;;14.25;100.00;99493.25;5047548;28;20213;-67
2023/05/15 04:14:05;;;;;;;0.57;0.57;;;;;;;14.36;100.00;99501.41;5049480;28;20205;-67
2023/05/15 04:16:31;;;;;;;0.40;0.40;;;;;;;14.43;100.00;99491.66;5049532;28;20196;-67
2023/05/15 04:18:58;;;;;;;0.50;0.50;;;;;;;14.37;100.00;99471.28;5050380;28;20285;-67
2023/05/15 04:21:25;;;;;;;0.60;0.60;;;;;;;14.50;100.00;99490.47;5050640;28;20199;-67
2023/05/15 04:23:51;;;;;;;0.33;0.33;;;;;;;14.53;100.00;99483.44;5050672;28;20259;-67
2023/05/15 04:26:18;;;;;;;0.57;0.57;;;;;;;14.57;100.00;99490.13;5050857;28;20654;-67
2023/05/15 04:28:45;;;;;;;0.50;0.50;;;;;;;14.56;100.00;99488.47;5050502;28;20224;-67
2023/05/15 04:31:15;;;;;;;0.60;0.60;;;;;;;14.60;100.00;99514.97;5049014;28;20285;-67
2023/05/15 04:33:41;;;;;;;0.50;0.50;;;;;;;14.57;100.00;99515.91;5050268;28;20201;-67
2023/05/15 04:36:10;;;;;;;0.60;0.60;;;;;;;14.55;100.00;99497.09;5050023;28;20211;-67
2023/05/15 04:38:37;;;;;;;0.50;0.50;;;;;;;14.59;100.00;99501.22;5050835;28;20664;-67
2023/05/15 04:41:03;;;;;;;0.63;0.63;;;;;;;14.63;100.00;99505.34;5049927;28;20206;-67
2023/05/15 04:43:30;;;;;;;0.67;0.67;;;;;;;14.67;100.00;99511.19;5050140;28;20278;-67
2023/05/15 04:45:57;;;;;;;0.60;0.60;;;;;;;14.71;100.00;99513.56;5046356;28;20321;-67
2023/05/15 04:48:25;;;;;;;0.80;0.80;;;;;;;14.78;100.00;99513.28;5049850;28;20254;-67
2023/05/15 04:50:51;;;;;;;0.50;0.50;;;;;;;14.84;100.00;99518.16;5050434;28;20768;-67
2023/05/15 04:53:18;;;;;;;0.80;0.80;;;;;;;14.86;100.00;99506.03;5048800;28;20666;-67
2023/05/15 04:55:45;;;;;;;0.70;0.70;;;;;;;14.89;100.00;99513.66;5049891;28;20196;-67
2023/05/15 04:58:12;;;;;;;0.60;0.60;;;;;;;14.95;100.00;99521.09;5049913;28;20201;-67
2023/05/15 05:00:39;;;;;;;0.70;0.70;;;;;;;15.00;100.00;99524.28;5049417;28;20193;-67
2023/05/15 05:03:05;;;;;;;0.60;0.60;;;;;;;15.04;100.00;99521.50;5049897;28;20199;-67
2023/05/15 05:05:33;;;;;;;0.43;0.43;;;;;;;15.02;100.00;99517.34;5049720;28;20694;-67
2023/05/15 05:08:00;;;;;;;5.57;0.80;;;;;;;15.00;100.00;99529.47;5044476;28;20351;-67
2023/05/15 05:10:27;;;;;;;0.60;0.60;;;;;;;15.02;100.00;99538.84;5048839;28;20278;-67
2023/05/15 05:12:54;;;;;;;0.40;0.40;;;;;;;15.04;100.00;99526.69;5049493;28;20254;-67
2023/05/15 05:15:20;;;;;;;0.50;0.50;;;;;;;15.09;100.00;99539.34;5046935;28;20262;-69
2023/05/15 05:17:47;;;;;;;0.50;0.50;;;;;;;15.15;100.00;99528.78;5049312;28;20205;-67
2023/05/15 05:20:14;;;;;;;0.60;0.60;;;;;;;15.20;100.00;99521.63;5048780;28;20200;-69
2023/05/15 05:22:42;;;;;;;0.50;0.50;;;;;;;15.26;100.00;99526.50;5047485;28;20222;-69
2023/05/15 05:25:09;;;;;;;0.40;0.40;;;;;;;15.25;100.00;99532.56;5048044;28;20204;-69
2023/05/15 05:27:36;;;;;;;0.60;0.60;;;;;;;15.33;100.00;99525.31;5046689;28;20239;-67
2023/05/15 05:30:03;;;;;;;0.40;0.40;;;;;;;15.41;100.00;99525.78;5047740;28;20214;-69
2023/05/15 05:32:30;;;;;;;0.60;0.60;;;;;;;15.46;100.00;99533.31;5048452;28;20201;-68
2023/05/15 05:34:56;;;;;;;0.60;0.60;;;;;;;15.53;100.00;99532.16;5048523;28;20365;-68
2023/05/15 05:37:23;;;;;;;0.60;0.60;;;;;;;15.60;100.00;99525.78;5048146;28;20235;-68
2023/05/15 05:39:51;;;;;;;0.53;0.53;;;;;;;15.55;100.00;99513.06;5045296;28;20885;-69
2023/05/15 05:42:18;;;;;;;0.50;0.50;;;;;;;15.62;100.00;99540.28;5047614;28;20258;-69
2023/05/15 05:44:45;;;;;;;0.80;0.80;;;;;;;15.69;100.00;99536.50;5048684;28;20201;-68
2023/05/15 05:47:11;;;;;;;0.50;0.50;;;;;;;15.71;100.00;99533.81;5049135;28;20280;-69
2023/05/15 05:49:38;;;;;;;0.60;0.60;;;;;;;15.58;100.00;99531.00;5046450;28;20207;-67
2023/05/15 05:52:06;;;;;;;0.60;0.60;;;;;;;15.68;100.00;99536.56;5047244;28;20307;-68
2023/05/15 05:54:33;;;;;;;0.67;0.67;;;;;;;15.75;100.00;99540.53;5049079;28;20205;-67
2023/05/15 05:57:01;;;;;;;0.70;0.70;;;;;;;15.77;100.00;99548.22;5048266;28;20262;-68
2023/05/15 05:59:28;;;;;;;0.40;0.40;;;;;;;15.79;100.00;99546.38;5051454;28;20220;-67
2023/05/15 06:01:55;;;;;;;2.83;0.73;;;;;;;15.83;100.00;99542.75;5048552;28;20205;-67
2023/05/15 06:04:22;;;;;;;0.90;0.90;;;;;;;15.88;100.00;99540.75;5047999;28;20269;-68
2023/05/15 06:06:49;;;;;;;0.53;0.53;;;;;;;15.94;100.00;99538.72;5047673;28;20258;-67
2023/05/15 06:09:16;;;;;;;0.60;0.60;;;;;;;15.89;100.00;99527.78;5050344;28;20209;-67
2023/05/15 06:11:44;;;;;;;0.60;0.60;;;;;;;15.96;100.00;99538.66;5052244;28;20220;-68
2023/05/15 06:14:12;;;;;;;0.97;0.97;;;;;;;15.99;100.00;99541.06;5052107;28;20205;-68
2023/05/15 06:16:39;;;;;;;0.50;0.50;;;;;;;16.15;100.00;99550.59;5051728;28;20205;-67
2023/05/15 06:19:06;;;;;;;0.50;0.50;;;;;;;16.21;100.00;99549.44;5052622;28;20208;-68
2023/05/15 06:21:33;;;;;;;0.50;0.50;;;;;;;16.22;100.00;99541.56;5052037;28;20668;-68
2023/05/15 06:23:59;;;;;;;0.50;0.50;;;;;;;16.25;100.00;99530.25;5049966;28;20204;-68
2023/05/15 06:26:26;;;;;;;0.50;0.50;;;;;;;16.31;100.00;99529.94;5052203;28;20217;-67
2023/05/15 06:28:53;;;;;;;0.60;0.60;;;;;;;16.29;100.00;99516.22;5049794;28;20688;-68
2023/05/15 06:31:21;;;;;;;0.40;0.40;;;;;;;16.29;100.00;99511.06;5051466;28;20768;-67
2023/05/15 06:33:47;;;;;;;0.50;0.50;;;;;;;16.29;100.00;99509.31;5047339;28;20255;-68
2023/05/15 06:36:14;;;;;;;1.03;1.03;;;;;;;16.31;100.00;99511.81;5051445;28;20205;-67
2023/05/15 06:38:41;;;;;;;0.57;0.57;;;;;;;16.25;100.00;99512.16;5051332;28;20204;-67
2023/05/15 06:41:07;;;;;;;0.47;0.47;;;;;;;16.24;100.00;99526.00;5052691;28;20676;-67
2023/05/15 06:43:34;;;;;;;0.47;0.47;;;;;;;16.27;100.00;99533.59;5054892;28;20222;-68
2023/05/15 06:46:01;;;;;;;0.53;0.53;;;;;;;16.34;100.00;99539.28;5051726;28;20228;-68
2023/05/15 06:48:29;;;;;;;0.50;0.50;;;;;;;16.26;100.00;99534.50;5053218;28;20283;-67
2023/05/15 06:50:55;;;;;;;0.67;0.67;;;;;;;16.20;100.00;99532.22;5053624;28;20256;-68
2023/05/15 06:53:22;;;;;;;0.50;0.50;;;;;;;16.16;100.00;99515.19;5051902;28;20372;-67
2023/05/15 06:55:49;;;;;;;0.63;0.63;;;;;;;16.18;100.00;99528.88;5049348;28;20303;-67
2023/05/15 06:58:16;;;;;;;0.53;0.53;;;;;;;16.23;100.00;99532.06;5050336;28;20236;-67
2023/05/15 07:00:43;;;;;;;0.30;0.30;;;;;;;16.25;100.00;99519.91;5047939;28;20246;-67
2023/05/15 07:03:10;;;;;;;0.90;0.90;;;;;;;16.19;100.00;99515.03;5048270;28;20208;-72
2023/05/15 07:05:38;;;;;;;0.47;0.47;;;;;;;16.26;100.00;99524.16;5051400;28;20572;-71
2023/05/15 07:08:05;;;;;;;0.50;0.50;;;;;;;16.28;100.00;99524.91;5047840;28;20262;-72
2023/05/15 07:10:32;;;;;;;0.63;0.63;;;;;;;16.27;100.00;99518.91;5050695;28;20216;-71
2023/05/15 07:12:58;;;;;;;0.77;0.77;;;;;;;16.28;100.00;99517.16;5051708;28;20205;-71
2023/05/15 07:15:25;;;;;;;0.60;0.60;;;;;;;16.28;100.00;99514.56;5051054;28;20331;-71
2023/05/15 07:17:52;;;;;;;0.50;0.50;;;;;;;16.28;100.00;99527.50;5050750;28;20208;-71
2023/05/15 07:20:19;;;;;;;0.50;0.50;;;;;;;16.35;100.00;99526.25;5051326;28;20254;-72
2023/05/15 07:22:47;;;;;;;0.63;0.63;;;;;;;16.40;100.00;99515.69;5049097;28;20212;-69
2023/05/15 07:25:13;;;;;;;0.80;0.80;;;;;;;16.47;100.00;99515.28;5049901;28;20196;-69
2023/05/15 07:27:40;;;;;;;0.40;0.40;;;;;;;16.55;100.00;99518.34;5051798;28;20232;-68
2023/05/15 07:30:08;;;;;;;0.50;0.50;;;;;;;16.49;100.00;99482.41;5050867;28;20197;-68
2023/05/15 07:32:35;;;;;;;0.50;0.50;;;;;;;16.49;100.00;99503.09;5051878;28;20236;-68
2023/05/15 07:35:03;;;;;;;0.60;0.60;;;;;;;16.44;100.00;99499.94;5050781;28;20204;-68
2023/05/15 07:37:29;;;;;;;0.60;0.60;;;;;;;16.45;100.00;99505.91;5050220;28;20311;-68
2023/05/15 07:39:58;;;;;;;0.50;0.50;;;;;;;16.53;100.00;99498.59;5051124;28;20209;-68
2023/05/15 07:42:25;;;;;;;1.03;1.03;;;;;;;16.56;100.00;99498.47;5050400;28;20676;-68
2023/05/15 07:44:52;;;;;;;0.70;0.70;;;;;;;16.67;100.00;99502.16;5049866;28;20215;-69
2023/05/15 07:47:18;;;;;;;0.60;0.60;;;;;;;16.80;100.00;99503.16;5050140;28;20726;-69
2023/05/15 07:49:45;;;;;;;0.53;0.53;;;;;;;16.90;100.00;99500.09;5051654;28;20224;-69
2023/05/15 07:52:12;;;;;;;0.50;0.50;;;;;;;16.91;100.00;99499.16;5048189;28;20228;-69
2023/05/15 07:54:40;;;;;;;0.40;0.40;;;;;;;16.73;100.00;99504.44;5049226;28;20208;-69
2023/05/15 07:57:08;;;;;;;0.60;0.60;;;;;;;16.68;100.00;99508.16;5050149;28;20656;-69
2023/05/15 07:59:36;;;;;;;1.07;1.07;;;;;;;16.64;100.00;99504.09;5051207;28;20204;-68
2023/05/15 08:02:02;;;;;;;0.63;0.63;;;;;;;16.54;100.00;99506.25;5051738;28;20692;-68
2023/05/15 08:04:29;;;;;;;0.50;0.50;;;;;;;16.54;100.00;99519.19;5053517;28;20644;-69
2023/05/15 08:06:56;;;;;;;0.53;0.53;;;;;;;16.69;100.00;99533.97;5050782;28;20288;-69
2023/05/15 08:09:22;;;;;;;0.40;0.40;;;;;;;16.65;100.00;99541.97;5054377;28;20208;-68
2023/05/15 08:11:49;;;;;;;1.70;0.80;;;;;;;16.67;100.00;99553.09;5051855;28;20287;-69
2023/05/15 08:14:17;;;;;;;0.50;0.50;;;;;;;16.70;100.00;99543.41;5051165;28;20270;-68
2023/05/15 08:16:44;;;;;;;0.40;0.40;;;;;;;16.86;100.00;99534.84;5044870;28;20266;-69
2023/05/15 08:19:10;;;;;;;0.50;0.50;;;;;;;16.92;100.00;99535.34;5047157;28;20649;-69
2023/05/15 08:21:38;;;;;;;0.80;0.80;;;;;;;17.05;100.00;99523.41;5050252;28;20192;-69
2023/05/15 08:24:05;;;;;;;0.40;0.40;;;;;;;17.17;100.00;99521.88;5051268;28;20209;-69
2023/05/15 08:26:32;;;;;;;0.50;0.50;;;;;;;17.23;100.00;99517.19;5049189;28;20201;-69
2023/05/15 08:28:58;;;;;;;0.77;0.77;;;;;;;17.35;100.00;99520.84;5050131;28;20201;-69
2023/05/15 08:31:26;;;;;;;0.50;0.50;;;;;;;17.24;100.00;99523.22;5049880;28;20265;-69
2023/05/15 08:33:53;;;;;;;0.63;0.63;;;;;;;17.36;100.00;99522.53;5049535;28;20201;-69
2023/05/15 08:36:20;;;;;;;0.60;0.60;;;;;;;17.24;100.00;99528.41;5049009;28;20205;-69
2023/05/15 08:38:47;;;;;;;0.40;0.40;;;;;;;17.13;100.00;99525.56;5050216;28;20201;-69
2023/05/15 08:41:26;;;;;;;0.70;0.70;;;;;;;17.11;100.00;99511.88;5050188;28;20224;-68
2023/05/15 08:43:55;;;;;;;0.80;0.80;;;;;;;16.95;100.00;99517.03;5049804;28;20209;-69
2023/05/15 08:46:23;;;;;;;0.50;0.50;;;;;;;16.86;100.00;99517.56;5048347;28;20680;-69
2023/05/15 08:48:53;;;;;;;0.50;0.50;;;;;;;16.97;100.00;99506.59;5049375;28;20262;-69
2023/05/15 08:51:20;;;;;;;0.57;0.57;;;;;;;16.97;100.00;99494.47;5048822;28;20305;-69
2023/05/15 08:53:48;;;;;;;0.83;0.83;;;;;;;17.05;100.00;99488.91;5048626;28;20223;-69
2023/05/15 08:56:14;;;;;;;0.70;0.70;;;;;;;17.22;100.00;99504.34;5048491;28;20201;-67
2023/05/15 08:58:42;;;;;;;0.60;0.60;;;;;;;17.33;100.00;99502.81;5048449;28;20197;-67
2023/05/15 09:01:09;;;;;;;0.50;0.50;;;;;;;17.38;100.00;99499.13;5047710;28;20258;-67
2023/05/15 09:03:36;;;;;;;0.53;0.53;;;;;;;17.36;100.00;99485.41;5049756;28;20681;-67
2023/05/15 09:06:05;;;;;;;0.53;0.53;;;;;;;17.39;100.00;99486.06;5049753;28;20197;-67
2023/05/15 09:08:33;;;;;;;0.50;0.50;;;;;;;17.46;100.00;99492.59;5048688;28;20291;-68
2023/05/15 09:11:03;;;;;;;0.40;0.40;;;;;;;17.44;100.00;99478.91;5050817;28;21684;-67
2023/05/15 09:13:30;;;;;;;0.70;0.70;;;;;;;17.52;100.00;99476.69;5051657;28;20247;-67
2023/05/15 09:15:56;;;;;;;0.40;0.40;;;;;;;17.45;100.00;99470.19;5047633;28;20617;-68
2023/05/15 09:18:24;;;;;;;0.73;0.73;;;;;;;17.51;100.00;99480.19;5050542;28;20204;-67
2023/05/15 09:20:51;;;;;;;0.50;0.50;;;;;;;17.51;100.00;99475.00;5051071;28;20646;-67
2023/05/15 09:23:26;;;;;;;0.53;0.53;;;;;;;17.53;100.00;99473.19;5049674;28;20200;-67
2023/05/15 09:25:55;;;;;;;0.60;0.60;;;;;;;17.60;100.00;99471.94;5047086;28;20266;-67
2023/05/15 09:28:27;;;;;;;0.40;0.40;;;;;;;17.42;100.00;99474.69;5050517;28;20233;-67
2023/05/15 09:31:00;;;;;;;0.60;0.60;;;;;;;17.49;100.00;99476.88;5048455;28;20253;-68
2023/05/15 09:33:31;;;;;;;0.70;0.70;;;;;;;17.62;100.00;99471.84;5049390;28;20201;-68
2023/05/15 09:35:58;;;;;;;0.60;0.60;;;;;;;17.61;100.00;99475.38;5050711;28;20207;-68
2023/05/15 09:38:26;;;;;;;0.43;0.43;;;;;;;17.48;100.00;99467.41;5048787;28;20252;-67
2023/05/15 09:41:01;;;;;;;0.90;0.90;;;;;;;17.44;100.00;99473.72;5049885;28;20204;-67
2023/05/15 09:43:28;;;;;;;0.43;0.43;;;;;;;17.60;100.00;99464.16;5049860;28;20683;-67
2023/05/15 09:45:55;;;;;;;0.50;0.50;;;;;;;17.65;100.00;99462.13;5051291;28;20209;-68
2023/05/15 09:48:22;;;;;;;0.70;0.70;;;;;;;17.61;100.00;99462.41;5052538;28;20212;-67
2023/05/15 09:50:49;;;;;;;0.60;0.60;;;;;;;17.61;100.00;99460.63;5052391;28;20205;-68
2023/05/15 09:53:16;;;;;;;0.80;0.80;;;;;;;17.56;100.00;99446.28;5052077;28;20228;-67
2023/05/15 09:55:44;;;;;;;0.80;0.80;;;;;;;17.61;100.00;99450.25;5051431;28;20197;-68
2023/05/15 09:58:12;;;;;;;0.77;0.77;;;;;;;17.52;100.00;99430.03;5051119;28;20285;-69
2023/05/15 10:00:40;;;;;;;0.50;0.50;;;;;;;17.54;100.00;99425.59;5050508;28;20248;-69
2023/05/15 10:03:08;;;;;;;1.00;1.00;;;;;;;17.56;100.00;99421.19;5051213;28;20199;-69
2023/05/15 10:05:35;;;;;;;0.40;0.40;;;;;;;17.61;100.00;99434.72;5050946;28;20196;-69
2023/05/15 10:08:02;;;;;;;0.50;0.50;;;;;;;17.73;100.00;99428.81;5051551;28;20200;-67
2023/05/15 10:10:30;;;;;;;0.47;0.47;;;;;;;17.82;100.00;99423.09;5052710;28;20278;-68
2023/05/15 10:13:02;;;;;;;0.60;0.60;;;;;;;17.86;100.00;99430.69;5052408;28;20213;-68
2023/05/15 10:15:29;;;;;;;0.50;0.50;;;;;;;17.71;100.00;99419.44;5051527;28;20202;-68
2023/05/15 10:17:56;;;;;;;0.47;0.47;;;;;;;17.71;100.00;99415.09;5052768;28;20197;-67
2023/05/15 10:20:24;;;;;;;0.50;0.50;;;;;;;17.72;100.00;99411.59;5052240;28;20205;-68
2023/05/15 10:22:54;;;;;;;0.70;0.70;;;;;;;17.67;100.00;99411.00;5052268;28;20262;-68
2023/05/15 10:25:28;;;;;;;0.73;0.73;;;;;;;17.66;100.00;99408.53;5053515;28;20664;-68
2023/05/15 10:27:56;;;;;;;0.70;0.70;;;;;;;17.63;100.00;99401.78;5051153;28;20704;-68
2023/05/15 10:30:26;;;;;;;0.60;0.60;;;;;;;17.71;100.00;99399.53;5052364;28;20754;-68
2023/05/15 10:32:54;;;;;;;0.60;0.60;;;;;;;17.80;100.00;99404.19;5053026;28;20236;-68
2023/05/15 10:35:22;;;;;;;0.77;0.77;;;;;;;17.59;100.00;99348.44;5049278;28;20213;-68
2023/05/15 10:37:49;;;;;;;0.50;0.50;;;;;;;17.95;100.00;99402.44;5051307;28;20212;-68
2023/05/15 10:40:17;;;;;;;0.50;0.50;;;;;;;17.93;100.00;99393.09;5052842;28;20625;-68
2023/05/15 10:42:46;;;;;;;0.50;0.50;;;;;;;18.07;100.00;99401.69;5053477;28;20258;-69
2023/05/15 10:45:13;;;;;;;0.80;0.80;;;;;;;18.19;100.00;99394.94;5046304;28;20969;-70
2023/05/15 10:47:43;;;;;;;0.80;0.80;;;;;;;18.28;100.00;99389.19;5047967;28;20298;-69
2023/05/15 10:50:12;;;;;;;0.43;0.43;;;;;;;18.31;100.00;99402.81;5052711;28;20200;-68
2023/05/15 10:52:40;;;;;;;0.50;0.50;;;;;;;18.31;100.00;99394.19;5052407;28;20227;-69
2023/05/15 10:55:11;;;;;;;0.40;0.40;;;;;;;18.23;100.00;99391.22;5051789;28;20208;-67
2023/05/15 10:57:38;;;;;;;0.53;0.53;;;;;;;18.44;100.00;99389.91;5053174;28;20193;-69
2023/05/15 11:00:24;;;;;;;1.03;1.03;;;;;;;18.49;100.00;99387.84;5051911;28;20280;-68
2023/05/15 11:02:55;;;;;;;0.50;0.50;;;;;;;18.59;100.00;99388.97;5052708;28;20198;-68
2023/05/15 11:05:23;;;;;;;0.60;0.60;;;;;;;18.69;100.00;99384.84;5051163;28;20213;-68
2023/05/15 11:08:26;;;;;;;0.50;0.50;;;;;;;18.78;100.00;99391.22;5052162;28;20296;-69
2023/05/15 11:10:53;;;;;;;0.77;0.77;;;;;;;18.78;100.00;99393.81;5051138;28;20210;-68
2023/05/15 11:13:20;;;;;;;0.50;0.50;;;;;;;18.63;100.00;99379.22;5050422;28;20305;-68
2023/05/15 11:15:48;;;;;;;0.50;0.50;;;;;;;18.66;100.00;99379.84;5051614;28;20274;-68
2023/05/15 11:18:16;;;;;;;0.93;0.93;;;;;;;18.60;100.00;99401.03;5051827;28;20232;-68
2023/05/15 11:21:07;;;;;;;0.67;0.67;;;;;;;18.57;100.00;99395.19;5052384;28;20728;-68
2023/05/15 11:23:39;;;;;;;0.50;0.50;;;;;;;18.55;100.00;99402.22;5054560;28;20230;-68
2023/05/15 11:26:06;;;;;;;0.60;0.60;;;;;;;18.44;100.00;99392.50;5050797;28;20211;-67
2023/05/15 11:28:41;;;;;;;1.33;1.33;;;;;;;18.55;100.00;99387.47;5054738;28;20230;-68